createdAt,value
2017-08-24T00:01:15.041Z,11.23
2017-08-24T00:03:42.494Z,11.53
2017-08-24T00:06:09.949Z,10.80
2017-08-24T00:08:37.514Z,11.33
2017-08-24T00:11:04.973Z,10.90
2017-08-24T00:13:32.524Z,10.40
2017-08-24T00:16:00.077Z,12.13
2017-08-24T00:18:27.646Z,10.63
2017-08-24T00:20:55.101Z,10.90
2017-08-24T00:23:22.558Z,11.27
2017-08-24T00:25:50.114Z,10.80
2017-08-24T00:28:17.674Z,12.07
2017-08-24T00:30:45.141Z,11.00
2017-08-24T00:33:12.601Z,11.17
2017-08-24T00:35:40.044Z,11.13
2017-08-24T00:38:07.506Z,11.30
2017-08-24T00:40:34.952Z,11.10
2017-08-24T00:43:02.518Z,10.57
2017-08-24T00:45:29.989Z,10.87
2017-08-24T00:47:57.534Z,9.80
2017-08-24T00:50:24.990Z,9.80
2017-08-24T00:52:52.443Z,11.07
2017-08-24T00:55:19.910Z,10.07
2017-08-24T00:57:47.362Z,11.30
2017-08-24T01:00:14.917Z,10.13
2017-08-24T01:02:42.370Z,10.73
2017-08-24T01:05:09.822Z,10.60
2017-08-24T01:07:37.277Z,8.90
2017-08-24T01:10:04.838Z,11.13
2017-08-24T01:12:32.289Z,9.93
2017-08-24T01:14:59.742Z,10.50
2017-08-24T01:17:27.209Z,10.57
2017-08-24T01:19:54.679Z,10.80
2017-08-24T01:22:22.138Z,10.50
2017-08-24T01:27:23.693Z,10.43
2017-08-24T01:29:51.158Z,11.17
2017-08-24T01:32:18.618Z,10.37
2017-08-24T01:34:46.068Z,10.50
2017-08-24T01:37:13.624Z,9.70
2017-08-24T01:39:41.087Z,10.97
2017-08-24T01:42:08.536Z,10.87
2017-08-24T01:44:35.993Z,10.93
2017-08-24T01:47:03.552Z,11.23
2017-08-24T01:49:31.017Z,10.93
2017-08-24T01:51:58.474Z,11.70
2017-08-24T01:54:26.030Z,11.73
2017-08-24T01:56:53.484Z,12.70
2017-08-24T01:59:20.942Z,12.87
2017-08-24T02:01:48.501Z,11.43
2017-08-24T02:04:16.058Z,12.30
2017-08-24T02:06:43.528Z,12.90
2017-08-24T02:09:10.977Z,13.70
2017-08-24T02:11:38.429Z,13.43
2017-08-24T02:14:05.989Z,11.20
2017-08-24T02:16:33.545Z,12.43
2017-08-24T02:19:00.993Z,12.23
2017-08-24T02:21:28.454Z,12.47
2017-08-24T02:23:55.918Z,12.27
2017-08-24T02:26:23.383Z,13.00
2017-08-24T02:28:50.841Z,15.10
2017-08-24T02:31:18.306Z,13.17
2017-08-24T02:33:45.752Z,13.17
2017-08-24T02:36:13.305Z,12.70
2017-08-24T02:38:40.763Z,14.20
2017-08-24T02:41:08.318Z,13.67
2017-08-24T02:43:35.873Z,12.70
2017-08-24T02:46:03.345Z,12.00
2017-08-24T02:48:30.806Z,12.60
2017-08-24T02:50:58.350Z,13.00
2017-08-24T02:53:25.804Z,13.40
2017-08-24T02:55:53.254Z,13.60
2017-08-24T02:58:20.723Z,13.30
2017-08-24T03:00:48.165Z,11.23
2017-08-24T03:03:15.745Z,12.53
2017-08-24T03:05:43.196Z,13.53
2017-08-24T03:08:10.658Z,12.40
2017-08-24T03:10:38.200Z,13.27
2017-08-24T03:13:05.768Z,12.93
2017-08-24T03:15:33.321Z,13.20
2017-08-24T03:18:00.882Z,13.47
2017-08-24T03:20:28.446Z,13.93
2017-08-24T03:22:55.892Z,14.73
2017-08-24T03:25:23.457Z,13.53
2017-08-24T03:27:50.909Z,13.63
2017-08-24T03:30:18.369Z,14.17
2017-08-24T03:32:45.934Z,13.03
2017-08-24T03:35:13.485Z,14.10
2017-08-24T03:37:40.937Z,15.40
2017-08-24T03:40:08.501Z,14.00
2017-08-24T03:42:35.958Z,14.33
2017-08-24T03:45:03.421Z,15.33
2017-08-24T03:47:30.877Z,14.57
2017-08-24T03:49:58.330Z,14.33
2017-08-24T03:52:25.785Z,14.00
2017-08-24T03:54:53.246Z,14.93
2017-08-24T03:57:20.705Z,14.63
2017-08-24T03:59:48.257Z,13.10
2017-08-24T04:02:15.724Z,13.60
2017-08-24T04:04:43.165Z,13.73
2017-08-24T04:07:10.620Z,14.67
2017-08-24T04:09:38.082Z,14.90
2017-08-24T04:12:05.646Z,14.20
2017-08-24T04:14:33.101Z,16.83
2017-08-24T04:17:00.656Z,13.90
2017-08-24T04:19:28.110Z,13.67
2017-08-24T04:21:55.576Z,14.00
2017-08-24T04:24:23.043Z,13.27
2017-08-24T04:26:50.490Z,14.20
2017-08-24T04:29:17.949Z,14.10
2017-08-24T04:31:45.397Z,13.70
2017-08-24T04:34:12.864Z,13.83
2017-08-24T04:36:40.312Z,13.93
2017-08-24T04:39:07.768Z,13.70
2017-08-24T04:41:35.227Z,14.27
2017-08-24T04:44:02.693Z,13.10
2017-08-24T04:46:30.242Z,13.23
2017-08-24T04:48:57.811Z,12.27
2017-08-24T04:51:25.265Z,12.43
2017-08-24T04:53:52.825Z,14.83
2017-08-24T04:56:20.287Z,13.33
2017-08-24T04:58:47.836Z,12.70
2017-08-24T05:01:15.288Z,12.73
2017-08-24T05:03:42.738Z,13.13
2017-08-24T05:06:10.193Z,13.20
2017-08-24T05:08:37.645Z,13.43
2017-08-24T05:11:05.117Z,13.00
2017-08-24T05:13:32.569Z,13.23
2017-08-24T05:16:00.041Z,13.37
2017-08-24T05:18:27.585Z,12.10
2017-08-24T05:20:55.041Z,13.57
2017-08-24T05:23:22.493Z,12.70
2017-08-24T05:25:50.059Z,11.20
2017-08-24T05:28:17.622Z,11.47
2017-08-24T05:30:45.073Z,12.57
2017-08-24T05:33:12.534Z,12.13
2017-08-24T05:35:40.089Z,12.20
2017-08-24T05:38:07.540Z,12.43
2017-08-24T05:40:34.988Z,12.77
2017-08-24T05:43:02.531Z,12.20
2017-08-24T05:45:29.975Z,13.10
2017-08-24T05:47:57.538Z,12.50
2017-08-24T05:50:25.095Z,13.60
2017-08-24T05:52:52.547Z,14.90
2017-08-24T05:55:19.988Z,13.47
2017-08-24T05:57:47.449Z,13.80
2017-08-24T06:00:14.903Z,14.03
2017-08-24T06:02:42.349Z,13.60
2017-08-24T06:05:09.829Z,13.30
2017-08-24T06:07:37.286Z,13.17
2017-08-24T06:10:04.741Z,13.00
2017-08-24T06:12:32.185Z,13.90
2017-08-24T06:14:59.655Z,15.63
2017-08-24T06:17:27.110Z,14.50
2017-08-24T06:19:54.576Z,14.40
2017-08-24T06:22:22.025Z,13.87
2017-08-24T06:24:49.853Z,13.20
2017-08-24T06:27:17.305Z,12.93
2017-08-24T06:29:44.809Z,12.00
2017-08-24T06:32:12.262Z,11.80
2017-08-24T06:34:39.714Z,11.27
2017-08-24T06:37:07.174Z,10.63
2017-08-24T06:39:34.628Z,9.50
2017-08-24T06:42:02.093Z,11.10
2017-08-24T06:44:29.541Z,11.27
2017-08-24T06:46:56.988Z,9.63
2017-08-24T06:49:24.462Z,10.00
2017-08-24T06:51:51.917Z,10.70
2017-08-24T06:54:19.370Z,11.30
2017-08-24T06:56:47.461Z,11.30
2017-08-24T06:59:14.908Z,10.77
2017-08-24T07:01:42.357Z,10.63
2017-08-24T07:04:09.819Z,10.03
2017-08-24T07:06:37.272Z,10.00
2017-08-24T07:09:04.725Z,9.97
2017-08-24T07:11:32.177Z,8.73
2017-08-24T07:13:59.646Z,10.53
2017-08-24T07:16:27.197Z,8.70
2017-08-24T07:18:54.638Z,9.97
2017-08-24T07:21:22.081Z,8.83
2017-08-24T07:23:49.566Z,8.53
2017-08-24T07:26:17.015Z,8.60
2017-08-24T07:31:17.374Z,7.70
2017-08-24T07:33:44.822Z,9.27
2017-08-24T07:36:12.264Z,8.80
2017-08-24T07:38:39.713Z,8.80
2017-08-24T07:41:07.189Z,7.77
2017-08-24T07:43:34.635Z,9.00
2017-08-24T07:46:02.081Z,6.77
2017-08-24T07:48:29.557Z,8.27
2017-08-24T07:50:56.993Z,8.43
2017-08-24T07:53:24.442Z,8.73
2017-08-24T07:55:51.880Z,8.57
2017-08-24T07:58:19.345Z,9.40
2017-08-24T08:00:46.846Z,8.73
2017-08-24T08:03:14.289Z,7.77
2017-08-24T08:05:41.739Z,7.97
2017-08-24T08:08:09.313Z,7.87
2017-08-24T08:10:36.761Z,9.23
2017-08-24T08:13:04.234Z,8.33
2017-08-24T08:15:31.791Z,8.10
2017-08-24T08:17:59.245Z,8.50
2017-08-24T08:20:26.684Z,7.97
2017-08-24T08:22:54.157Z,8.03
2017-08-24T08:25:21.605Z,8.90
2017-08-24T08:27:49.049Z,9.70
2017-08-24T08:30:16.497Z,8.43
2017-08-24T08:32:43.941Z,9.40
2017-08-24T08:35:11.442Z,9.10
2017-08-24T08:37:38.884Z,8.80
2017-08-24T08:40:06.353Z,9.80
2017-08-24T08:42:33.800Z,10.10
2017-08-24T08:45:01.273Z,10.00
2017-08-24T08:47:28.721Z,11.60
2017-08-24T08:49:56.166Z,9.97
2017-08-24T08:52:23.644Z,10.23
2017-08-24T08:54:51.089Z,10.60
2017-08-24T08:57:18.541Z,10.00
2017-08-24T08:59:46.013Z,10.87
2017-08-24T09:02:13.460Z,10.53
2017-08-24T09:04:40.939Z,9.80
2017-08-24T09:07:08.477Z,8.90
2017-08-24T09:09:35.942Z,11.40
2017-08-24T09:12:03.405Z,11.00
2017-08-24T09:14:30.853Z,9.50
2017-08-24T09:16:58.292Z,9.50
2017-08-24T09:19:25.744Z,9.77
2017-08-24T09:21:53.194Z,10.00
2017-08-24T09:24:20.640Z,8.93
2017-08-24T09:26:48.089Z,8.10
2017-08-24T09:29:15.542Z,9.77
2017-08-24T09:31:42.994Z,10.10
2017-08-24T09:34:10.454Z,10.00
2017-08-24T09:36:37.897Z,10.47
2017-08-24T09:39:05.354Z,8.60
2017-08-24T09:41:32.799Z,8.20
2017-08-24T09:44:00.254Z,8.90
2017-08-24T09:46:27.698Z,8.33
2017-08-24T09:48:55.152Z,9.27
2017-08-24T09:51:22.602Z,8.60
2017-08-24T09:53:50.058Z,8.47
2017-08-24T09:56:17.497Z,8.40
2017-08-24T09:58:44.940Z,8.40
2017-08-24T10:01:12.393Z,8.07
2017-08-24T10:03:39.834Z,9.10
2017-08-24T10:06:07.286Z,7.70
2017-08-24T10:08:34.732Z,9.37
2017-08-24T10:11:02.181Z,6.93
2017-08-24T10:13:29.789Z,7.83
2017-08-24T10:15:57.235Z,6.90
2017-08-24T10:18:24.683Z,8.03
2017-08-24T10:20:52.138Z,6.83
2017-08-24T10:23:19.681Z,6.90
2017-08-24T10:25:47.125Z,6.37
2017-08-24T10:28:14.573Z,7.47
2017-08-24T10:30:42.087Z,6.50
2017-08-24T10:33:09.461Z,5.50
2017-08-24T10:35:36.906Z,5.80
2017-08-24T10:38:04.350Z,5.13
2017-08-24T10:40:31.795Z,5.60
2017-08-24T10:42:59.243Z,4.50
2017-08-24T10:45:26.689Z,4.50
2017-08-24T10:47:54.133Z,4.40
2017-08-24T10:50:21.572Z,4.77
2017-08-24T10:52:49.016Z,5.10
2017-08-24T10:55:16.466Z,5.50
2017-08-24T10:57:43.931Z,5.13
2017-08-24T11:00:11.377Z,5.90
2017-08-24T11:02:38.858Z,5.43
2017-08-24T11:05:06.305Z,5.30
2017-08-24T11:07:33.747Z,5.07
2017-08-24T11:10:01.199Z,5.13
2017-08-24T11:12:28.633Z,4.60
2017-08-24T11:14:56.081Z,3.87
2017-08-24T11:17:23.522Z,4.10
2017-08-24T11:19:50.974Z,4.70
2017-08-24T11:22:18.422Z,4.53
2017-08-24T11:24:46.715Z,4.60
2017-08-24T11:27:14.158Z,4.50
2017-08-24T11:29:41.597Z,4.60
2017-08-24T11:32:09.046Z,4.50
2017-08-24T11:34:36.486Z,4.80
2017-08-24T11:37:04.505Z,4.37
2017-08-24T11:39:31.941Z,4.23
2017-08-24T11:41:59.398Z,4.70
2017-08-24T11:44:26.845Z,4.60
2017-08-24T11:46:54.290Z,4.60
2017-08-24T11:49:21.741Z,4.93
2017-08-24T11:51:49.189Z,5.43
2017-08-24T11:54:16.642Z,5.53
2017-08-24T11:56:44.077Z,4.60
2017-08-24T11:59:11.546Z,4.63
2017-08-24T12:01:38.994Z,4.80
2017-08-24T12:04:06.433Z,4.20
2017-08-24T12:06:33.885Z,3.73
2017-08-24T12:09:01.326Z,4.03
2017-08-24T12:11:28.777Z,4.27
2017-08-24T12:13:56.223Z,3.63
2017-08-24T12:16:23.669Z,4.80
2017-08-24T12:18:51.113Z,3.63
2017-08-24T12:21:18.562Z,4.67
2017-08-24T12:23:46.008Z,3.60
2017-08-24T12:26:13.474Z,4.50
2017-08-24T12:28:40.925Z,3.80
2017-08-24T12:31:08.364Z,3.93
2017-08-24T12:33:35.817Z,3.70
2017-08-24T12:36:03.276Z,4.60
2017-08-24T12:38:30.733Z,5.27
2017-08-24T12:40:58.178Z,4.17
2017-08-24T12:43:25.617Z,6.27
2017-08-24T12:45:53.061Z,9.30
2017-08-24T12:48:20.514Z,5.10
2017-08-24T12:50:47.950Z,4.20
2017-08-24T12:53:15.397Z,6.10
2017-08-24T12:55:42.836Z,5.60
2017-08-24T12:58:10.382Z,4.33
2017-08-24T13:00:37.823Z,3.63
2017-08-24T13:03:05.286Z,3.73
2017-08-24T13:05:32.725Z,4.43
2017-08-24T13:08:00.175Z,3.87
2017-08-24T13:10:27.620Z,3.80
2017-08-24T13:12:55.061Z,4.40
2017-08-24T13:15:22.517Z,4.83
2017-08-24T13:17:49.959Z,5.07
2017-08-24T13:20:17.419Z,3.93
2017-08-24T13:22:44.852Z,4.33
2017-08-24T13:25:12.310Z,3.60
2017-08-24T13:27:39.756Z,5.20
2017-08-24T13:30:07.213Z,4.83
2017-08-24T13:32:34.653Z,4.57
2017-08-24T13:35:02.097Z,3.67
2017-08-24T13:37:29.551Z,4.70
2017-08-24T13:39:56.999Z,3.80
2017-08-24T13:42:24.445Z,3.60
2017-08-24T13:44:51.893Z,4.63
2017-08-24T13:47:19.349Z,4.20
2017-08-24T13:49:46.794Z,14.73
2017-08-24T13:52:14.245Z,4.80
2017-08-24T13:54:41.685Z,6.30
2017-08-24T13:57:09.134Z,4.13
2017-08-24T13:59:36.579Z,5.60
2017-08-24T14:02:04.024Z,3.80
2017-08-24T14:04:31.474Z,3.70
2017-08-24T14:06:58.921Z,4.03
2017-08-24T14:09:26.362Z,4.30
2017-08-24T14:11:53.831Z,4.47
2017-08-24T14:14:21.274Z,3.43
2017-08-24T14:16:48.712Z,3.50
2017-08-24T14:19:16.161Z,5.60
2017-08-24T14:21:43.604Z,3.73
2017-08-24T14:24:11.046Z,3.47
2017-08-24T14:26:38.502Z,3.73
2017-08-24T14:29:05.958Z,4.20
2017-08-24T14:31:33.402Z,4.20
2017-08-24T14:34:00.858Z,3.60
2017-08-24T14:36:28.303Z,4.10
2017-08-24T14:38:55.746Z,3.70
2017-08-24T14:41:23.192Z,4.27
2017-08-24T14:43:50.639Z,3.57
2017-08-24T14:46:18.086Z,4.07
2017-08-24T14:48:45.555Z,4.57
2017-08-24T14:51:12.998Z,3.97
2017-08-24T14:53:40.455Z,4.30
2017-08-24T14:56:07.897Z,4.20
2017-08-24T14:58:35.340Z,4.17
2017-08-24T15:01:02.785Z,3.93
2017-08-24T15:03:30.219Z,4.77
2017-08-24T15:05:57.678Z,4.50
2017-08-24T15:08:25.127Z,4.87
2017-08-24T15:10:52.578Z,3.30
2017-08-24T15:13:20.017Z,4.70
2017-08-24T15:15:47.469Z,4.07
2017-08-24T15:18:14.910Z,3.70
2017-08-24T15:20:42.357Z,4.10
2017-08-24T15:23:09.797Z,4.07
2017-08-24T15:25:37.258Z,3.47
2017-08-24T15:28:04.702Z,3.33
2017-08-24T15:30:32.151Z,3.37
2017-08-24T15:32:59.601Z,3.43
2017-08-24T15:35:27.036Z,3.67
2017-08-24T15:37:54.493Z,3.50
2017-08-24T15:40:21.953Z,2.90
2017-08-24T15:42:49.410Z,3.10
2017-08-24T15:45:16.854Z,2.83
2017-08-24T15:47:44.301Z,3.37
2017-08-24T15:50:11.745Z,3.53
2017-08-24T15:52:39.201Z,2.40
2017-08-24T15:55:06.642Z,2.57
2017-08-24T15:57:34.080Z,3.10
2017-08-24T16:00:01.530Z,2.73
2017-08-24T16:02:28.981Z,2.70
2017-08-24T16:04:56.433Z,2.20
2017-08-24T16:07:23.873Z,3.13
2017-08-24T16:09:51.312Z,2.33
2017-08-24T16:12:18.756Z,2.43
2017-08-24T16:14:46.205Z,3.10
2017-08-24T16:17:13.647Z,2.73
2017-08-24T16:19:41.105Z,2.80
2017-08-24T16:22:08.540Z,2.77
2017-08-24T16:24:35.998Z,2.93
2017-08-24T16:27:03.446Z,2.63
2017-08-24T16:29:30.884Z,2.90
2017-08-24T16:31:58.338Z,3.30
2017-08-24T16:34:25.778Z,2.40
2017-08-24T16:36:53.226Z,2.53
2017-08-24T16:39:20.670Z,2.90
2017-08-24T16:41:48.118Z,3.00
2017-08-24T16:44:15.557Z,2.33
2017-08-24T16:46:43.010Z,2.13
2017-08-24T16:49:10.449Z,2.40
2017-08-24T16:51:37.915Z,2.17
2017-08-24T16:54:05.356Z,2.70
2017-08-24T16:56:32.794Z,2.07
2017-08-24T16:59:00.249Z,2.27
2017-08-24T17:01:27.698Z,2.07
2017-08-24T17:03:55.143Z,2.33
2017-08-24T17:06:22.580Z,2.00
2017-08-24T17:08:50.037Z,2.10
2017-08-24T17:11:17.477Z,2.67
2017-08-24T17:13:44.923Z,2.97
2017-08-24T17:16:12.365Z,2.23
2017-08-24T17:18:39.818Z,2.23
2017-08-24T17:21:07.258Z,2.77
2017-08-24T17:23:34.702Z,2.30
2017-08-24T17:26:02.159Z,2.67
2017-08-24T17:28:29.596Z,2.10
2017-08-24T17:30:57.049Z,2.73
2017-08-24T17:33:28.974Z,2.03
2017-08-24T17:35:56.489Z,1.93
2017-08-24T17:38:23.938Z,2.10
2017-08-24T17:40:51.389Z,2.60
2017-08-24T17:43:18.857Z,2.10
2017-08-24T17:45:46.312Z,2.53
2017-08-24T17:48:13.754Z,2.20
2017-08-24T17:50:41.215Z,2.23
2017-08-24T17:53:08.654Z,2.50
2017-08-24T17:55:36.103Z,2.20
2017-08-24T17:58:03.541Z,2.00
2017-08-24T18:00:30.985Z,2.27
2017-08-24T18:02:58.438Z,1.70
2017-08-24T18:05:25.882Z,2.20
2017-08-24T18:07:53.338Z,1.90
2017-08-24T18:10:20.785Z,3.20
2017-08-24T18:12:48.238Z,2.70
2017-08-24T18:15:15.674Z,2.20
2017-08-24T18:17:43.122Z,2.10
2017-08-24T18:20:10.566Z,2.10
2017-08-24T18:22:38.022Z,2.23
2017-08-24T18:25:05.465Z,1.93
2017-08-24T18:27:32.905Z,2.00
2017-08-24T18:30:00.349Z,2.33
2017-08-24T18:32:27.790Z,2.47
2017-08-24T18:34:55.241Z,1.70
2017-08-24T18:37:22.680Z,1.73
2017-08-24T18:39:50.133Z,2.00
2017-08-24T18:42:17.568Z,2.07
2017-08-24T18:44:45.013Z,1.87
2017-08-24T18:47:12.670Z,2.07
2017-08-24T18:49:40.152Z,2.20
2017-08-24T18:52:07.558Z,2.00
2017-08-24T18:54:35.107Z,2.50
2017-08-24T18:57:02.549Z,2.00
2017-08-24T18:59:30.007Z,2.40
2017-08-24T19:01:57.466Z,2.33
2017-08-24T19:04:24.909Z,2.30
2017-08-24T19:06:52.360Z,2.50
2017-08-24T19:09:19.806Z,1.80
2017-08-24T19:11:47.259Z,2.27
2017-08-24T19:14:14.702Z,2.00
2017-08-24T19:16:42.205Z,2.50
2017-08-24T19:19:09.680Z,2.27
2017-08-24T19:21:37.137Z,2.17
2017-08-24T19:24:04.672Z,2.70
2017-08-24T19:26:32.134Z,3.07
2017-08-24T19:28:59.587Z,2.53
2017-08-24T19:31:27.037Z,2.30
2017-08-24T19:33:54.505Z,2.10
2017-08-24T19:36:21.946Z,2.10
2017-08-24T19:38:49.393Z,2.27
2017-08-24T19:41:16.850Z,2.53
2017-08-24T19:43:44.332Z,2.53
2017-08-24T19:46:11.797Z,2.80
2017-08-24T19:48:39.248Z,2.20
2017-08-24T19:51:06.702Z,2.40
2017-08-24T19:53:34.149Z,2.10
2017-08-24T19:56:01.589Z,2.63
2017-08-24T19:58:29.052Z,2.03
2017-08-24T20:00:56.553Z,2.17
2017-08-24T20:03:23.993Z,2.80
2017-08-24T20:05:51.452Z,2.10
2017-08-24T20:08:18.898Z,2.60
2017-08-24T20:10:46.362Z,2.20
2017-08-24T20:13:13.811Z,2.37
2017-08-24T20:15:41.253Z,4.07
2017-08-24T20:18:08.698Z,2.77
2017-08-24T20:20:36.151Z,3.03
2017-08-24T20:23:03.593Z,2.60
2017-08-24T20:25:31.037Z,2.13
2017-08-24T20:27:58.544Z,2.13
2017-08-24T20:30:26.009Z,2.13
2017-08-24T20:32:53.439Z,2.40
2017-08-24T20:35:20.934Z,2.10
2017-08-24T20:37:48.396Z,1.80
2017-08-24T20:40:15.842Z,2.50
2017-08-24T20:42:43.286Z,2.33
2017-08-24T20:45:10.762Z,1.73
2017-08-24T20:47:38.214Z,2.30
2017-08-24T20:50:05.648Z,1.90
2017-08-24T20:52:33.126Z,2.37
2017-08-24T20:55:00.586Z,2.77
2017-08-24T21:00:02.034Z,3.20
2017-08-24T21:02:29.485Z,2.40
2017-08-24T21:04:56.931Z,2.30
2017-08-24T21:07:24.428Z,2.10
2017-08-24T21:09:51.864Z,2.33
2017-08-24T21:12:19.334Z,2.40
2017-08-24T21:14:46.793Z,2.00
2017-08-24T21:17:14.250Z,2.70
2017-08-24T21:19:41.697Z,2.37
2017-08-24T21:22:09.144Z,2.57
2017-08-24T21:24:36.581Z,2.90
2017-08-24T21:27:04.025Z,3.37
2017-08-24T21:29:31.488Z,2.23
2017-08-24T21:31:58.907Z,2.70
2017-08-24T21:34:26.357Z,2.67
2017-08-24T21:36:53.905Z,3.10
2017-08-24T21:39:21.352Z,2.80
2017-08-24T21:41:48.818Z,2.77
2017-08-24T21:44:16.270Z,2.90
2017-08-24T21:46:43.714Z,2.40
2017-08-24T21:49:11.177Z,3.17
2017-08-24T21:51:38.640Z,3.03
2017-08-24T21:54:06.080Z,2.63
2017-08-24T21:56:33.533Z,2.83
2017-08-24T21:59:00.982Z,3.00
2017-08-24T22:01:28.430Z,2.27
2017-08-24T22:03:55.870Z,2.50
2017-08-24T22:06:23.322Z,2.77
2017-08-24T22:08:50.773Z,2.40
2017-08-24T22:11:18.232Z,2.40
2017-08-24T22:13:45.759Z,2.73
2017-08-24T22:16:13.309Z,2.60
2017-08-24T22:18:40.774Z,2.40
2017-08-24T22:21:08.226Z,2.50
2017-08-24T22:23:35.664Z,2.60
2017-08-24T22:26:03.250Z,2.87
2017-08-24T22:28:30.694Z,2.80
2017-08-24T22:30:58.142Z,2.70
2017-08-24T22:33:25.598Z,2.20
2017-08-24T22:35:53.075Z,2.50
2017-08-24T22:38:20.631Z,2.60
2017-08-24T22:40:48.087Z,2.50
2017-08-24T22:43:15.641Z,2.27
2017-08-24T22:45:43.103Z,2.63
2017-08-24T22:48:10.651Z,2.70
2017-08-24T22:50:38.114Z,2.70
2017-08-24T22:53:11.133Z,2.60
2017-08-24T22:55:44.224Z,2.10
2017-08-24T22:58:17.350Z,3.27
2017-08-24T23:00:50.373Z,2.63
2017-08-24T23:03:23.637Z,2.70
2017-08-24T23:05:51.081Z,3.10
2017-08-24T23:08:18.525Z,2.90
2017-08-24T23:10:46.035Z,3.13
2017-08-24T23:13:13.486Z,3.13
2017-08-24T23:15:40.937Z,3.47
2017-08-24T23:18:08.398Z,2.73
2017-08-24T23:20:35.859Z,2.87
2017-08-24T23:23:03.302Z,3.23
2017-08-24T23:25:30.741Z,3.20
2017-08-24T23:27:58.193Z,3.17
2017-08-24T23:30:25.673Z,3.20
2017-08-24T23:32:53.109Z,2.77
2017-08-24T23:35:20.569Z,3.23
2017-08-24T23:37:48.020Z,3.30
2017-08-24T23:40:15.457Z,3.67
2017-08-24T23:42:42.962Z,3.33
2017-08-24T23:45:10.412Z,3.43
2017-08-24T23:47:37.860Z,2.90
2017-08-24T23:50:05.305Z,3.50
2017-08-24T23:52:32.790Z,3.97
2017-08-24T23:55:00.232Z,3.40
2017-08-24T23:57:27.680Z,3.67
2017-08-24T23:59:55.117Z,3.73
